Time;durP1;ratioP1;P1;durP2;ratioP2;P2;SDS_P1;SDS_P2;PMS_P1;PMS_P2;Temp;Humidity;BMP_temperature;BMP_pressure;BME280_temperature;BME280_humidity;BME280_pressure;Samples;Min_cycle;Max_cycle;Signal;HPM_P1;HPM_P2
2021/07/29 00:00:43;;;;;;;0.13;0.13;;;16.90;99.90;;;;;;5032359;28;20040;-85
2021/07/29 00:03:09;;;;;;;0.20;0.20;;;16.70;99.90;;;;;;5031971;28;20035;-85
2021/07/29 00:05:36;;;;;;;0.20;0.20;;;16.50;99.90;;;;;;5030807;28;20063;-85
2021/07/29 00:08:03;;;;;;;0.40;0.40;;;16.50;99.90;;;;;;5031947;28;20021;-85
2021/07/29 00:10:33;;;;;;;0.13;0.13;;;16.40;99.90;;;;;;5037802;28;20028;-85
2021/07/29 00:12:59;;;;;;;0.13;0.13;;;16.30;99.90;;;;;;5051457;28;20025;-85
2021/07/29 00:15:25;;;;;;;0.10;0.10;;;16.20;99.90;;;;;;5051585;28;20094;-85
2021/07/29 00:20:27;;;;;;;0.17;0.17;;;16.00;99.90;;;;;;5050610;28;20787;-85
2021/07/29 00:22:57;;;;;;;0.22;0.22;;;16.00;99.90;;;;;;5051022;28;20120;-85
2021/07/29 00:25:24;;;;;;;1.45;1.10;;;15.90;99.90;;;;;;5049795;28;20086;-85
2021/07/29 00:27:52;;;;;;;2.45;0.80;;;15.90;99.90;;;;;;5050922;28;20690;-85
2021/07/29 00:30:20;;;;;;;0.40;0.40;;;15.90;99.90;;;;;;5049865;28;20032;-85
2021/07/29 00:32:46;;;;;;;0.15;0.15;;;15.80;99.90;;;;;;5051198;28;20401;-85
2021/07/29 00:35:14;;;;;;;0.00;0.00;;;15.70;99.90;;;;;;5035654;28;20521;-85
2021/07/29 00:37:52;;;;;;;0.25;0.25;;;15.70;99.90;;;;;;5031358;28;20029;-85
2021/07/29 00:40:19;;;;;;;0.25;0.25;;;15.70;99.90;;;;;;5031079;28;20065;-85
2021/07/29 00:42:46;;;;;;;0.38;0.38;;;15.80;99.90;;;;;;5029731;28;20033;-85
2021/07/29 00:45:12;;;;;;;2.65;1.02;;;15.70;99.90;;;;;;5041709;28;20036;-85
2021/07/29 00:47:46;;;;;;;0.52;0.52;;;15.70;99.90;;;;;;5050984;28;20025;-85
2021/07/29 00:50:14;;;;;;;0.80;0.47;;;15.70;99.90;;;;;;5050714;28;20032;-85
2021/07/29 00:52:40;;;;;;;0.15;0.15;;;15.70;99.90;;;;;;5051377;28;20096;-85
2021/07/29 00:55:07;;;;;;;1.85;0.52;;;15.60;99.90;;;;;;5049967;28;20028;-85
2021/07/29 00:57:36;;;;;;;0.22;0.22;;;15.60;99.90;;;;;;5050466;28;20121;-85
2021/07/29 01:00:04;;;;;;;0.10;0.10;;;15.60;99.90;;;;;;5050476;28;20028;-85
2021/07/29 01:02:30;;;;;;;3.08;0.60;;;15.60;99.90;;;;;;5049583;28;20040;-85
2021/07/29 01:04:56;;;;;;;0.20;0.20;;;15.50;99.90;;;;;;5049576;28;20033;-85
2021/07/29 01:07:21;;;;;;;0.63;0.63;;;15.40;99.90;;;;;;5050472;28;20033;-85
2021/07/29 01:09:47;;;;;;;0.10;0.10;;;15.30;99.90;;;;;;5050550;28;20036;-85
2021/07/29 01:12:13;;;;;;;0.50;0.27;;;15.40;99.90;;;;;;5050218;28;20029;-85
2021/07/29 01:14:39;;;;;;;1.20;1.03;;;15.30;99.90;;;;;;5049043;28;20072;-85
2021/07/29 01:17:05;;;;;;;0.23;0.13;;;15.40;99.90;;;;;;5050215;28;20028;-85
2021/07/29 01:19:31;;;;;;;0.27;0.27;;;15.40;99.90;;;;;;5048646;28;20029;-85
2021/07/29 01:21:58;;;;;;;0.10;0.10;;;15.40;99.90;;;;;;5050425;28;20032;-85
2021/07/29 01:24:25;;;;;;;1.35;1.25;;;15.40;99.90;;;;;;5049934;28;20119;-85
2021/07/29 01:26:51;;;;;;;1.98;0.45;;;15.50;99.90;;;;;;5050127;28;20027;-86
2021/07/29 01:29:17;;;;;;;0.30;0.30;;;15.60;99.90;;;;;;5049213;28;20036;-85
2021/07/29 01:31:43;;;;;;;0.47;0.47;;;15.50;99.90;;;;;;5049904;28;20044;-85
2021/07/29 01:34:11;;;;;;;0.30;0.30;;;15.60;99.90;;;;;;5049628;28;20032;-85
2021/07/29 01:36:37;;;;;;;0.38;0.38;;;15.50;99.90;;;;;;5048489;28;20036;-85
2021/07/29 01:39:03;;;;;;;0.20;0.20;;;15.40;99.90;;;;;;5048380;28;20029;-85
2021/07/29 01:41:29;;;;;;;1.55;0.73;;;15.50;99.90;;;;;;5049556;28;20033;-85
2021/07/29 01:43:55;;;;;;;0.63;0.30;;;15.50;99.90;;;;;;5049715;28;20036;-85
2021/07/29 01:46:20;;;;;;;0.83;0.63;;;15.50;99.90;;;;;;5048161;28;20389;-85
2021/07/29 01:48:46;;;;;;;0.57;0.40;;;15.50;99.90;;;;;;5049629;28;20067;-85
2021/07/29 01:51:12;;;;;;;0.30;0.30;;;15.30;99.90;;;;;;5049426;28;20035;-85
2021/07/29 01:53:38;;;;;;;0.30;0.30;;;15.30;99.90;;;;;;5048244;28;20029;-85
2021/07/29 01:56:08;;;;;;;0.13;0.13;;;15.30;99.90;;;;;;5049520;28;20049;-85
2021/07/29 01:58:33;;;;;;;0.52;0.47;;;15.30;99.90;;;;;;5049416;28;20759;-85
2021/07/29 02:00:59;;;;;;;0.23;0.17;;;15.20;99.90;;;;;;5048459;28;20051;-85
2021/07/29 02:03:25;;;;;;;0.30;0.30;;;15.10;99.90;;;;;;5049541;28;20021;-85
2021/07/29 02:05:51;;;;;;;0.20;0.20;;;15.10;99.90;;;;;;5048362;28;20396;-85
2021/07/29 02:08:16;;;;;;;0.27;0.27;;;15.00;99.90;;;;;;5048118;28;20021;-85
2021/07/29 02:10:42;;;;;;;0.43;0.43;;;15.00;99.90;;;;;;5049231;28;20124;-85
2021/07/29 02:13:08;;;;;;;0.20;0.20;;;15.00;99.90;;;;;;5049717;28;20025;-85
2021/07/29 02:15:34;;;;;;;0.47;0.43;;;15.00;99.90;;;;;;5048171;28;20550;-85
2021/07/29 02:18:02;;;;;;;0.93;0.30;;;15.00;99.90;;;;;;5049564;28;20032;-85
2021/07/29 02:20:28;;;;;;;0.38;0.38;;;15.00;99.90;;;;;;5049208;28;20170;-85
2021/07/29 02:22:54;;;;;;;1.17;0.73;;;15.10;99.90;;;;;;5049363;28;20037;-85
2021/07/29 02:25:20;;;;;;;0.23;0.23;;;15.10;99.90;;;;;;5049539;28;20025;-85
2021/07/29 02:27:46;;;;;;;0.53;0.40;;;14.90;99.90;;;;;;5049321;28;20151;-85
2021/07/29 02:30:12;;;;;;;0.50;0.30;;;15.00;99.90;;;;;;5049468;28;20029;-85
2021/07/29 02:32:39;;;;;;;0.57;0.47;;;15.00;99.90;;;;;;5049246;28;20050;-85
2021/07/29 02:35:05;;;;;;;0.10;0.10;;;15.00;99.90;;;;;;5035049;28;20044;-84
2021/07/29 02:37:31;;;;;;;0.10;0.10;;;15.10;99.90;;;;;;5029482;28;20038;-85
2021/07/29 02:39:57;;;;;;;0.10;0.10;;;15.20;99.90;;;;;;5029612;28;20103;-85
2021/07/29 02:42:23;;;;;;;0.20;0.20;;;15.20;99.90;;;;;;5029298;28;20696;-85
2021/07/29 02:44:49;;;;;;;0.00;0.00;;;15.20;99.90;;;;;;5032179;28;20529;-85
2021/07/29 02:47:15;;;;;;;0.23;0.23;;;15.20;99.90;;;;;;5033261;28;20096;-85
2021/07/29 02:49:40;;;;;;;0.10;0.10;;;15.20;99.90;;;;;;5032933;28;20041;-85
2021/07/29 02:52:07;;;;;;;0.30;0.30;;;15.00;99.90;;;;;;5032932;28;20037;-85
2021/07/29 02:54:33;;;;;;;0.20;0.20;;;15.10;99.90;;;;;;5033192;28;20095;-85
2021/07/29 02:56:59;;;;;;;0.10;0.10;;;15.10;99.90;;;;;;5031653;28;20045;-85
2021/07/29 02:59:25;;;;;;;0.10;0.10;;;15.20;99.90;;;;;;5031397;28;20515;-85
2021/07/29 03:01:52;;;;;;;0.30;0.30;;;15.10;99.90;;;;;;5032826;28;20747;-85
2021/07/29 03:04:20;;;;;;;0.17;0.17;;;15.00;99.90;;;;;;5032843;28;20113;-85
2021/07/29 03:06:46;;;;;;;4.93;1.08;;;14.90;99.90;;;;;;5032772;28;20036;-85
2021/07/29 03:09:13;;;;;;;0.23;0.23;;;14.80;99.90;;;;;;5031279;28;20030;-85
2021/07/29 03:11:38;;;;;;;0.00;0.00;;;14.80;99.90;;;;;;5032915;28;20067;-85
2021/07/29 03:14:05;;;;;;;0.20;0.20;;;14.70;99.90;;;;;;5032861;28;20397;-85
2021/07/29 03:16:30;;;;;;;0.10;0.10;;;14.60;99.90;;;;;;5032897;28;20045;-85
2021/07/29 03:18:56;;;;;;;0.10;0.10;;;14.60;99.90;;;;;;5032413;28;20748;-85
2021/07/29 03:21:22;;;;;;;0.30;0.30;;;14.70;99.90;;;;;;5032645;28;20559;-85
2021/07/29 03:23:48;;;;;;;0.37;0.37;;;14.70;99.90;;;;;;5032523;28;20029;-85
2021/07/29 03:26:13;;;;;;;0.10;0.10;;;14.70;99.90;;;;;;5032450;28;20493;-85
2021/07/29 03:28:39;;;;;;;0.57;0.53;;;14.80;99.90;;;;;;5032167;28;20397;-85
2021/07/29 03:31:05;;;;;;;0.20;0.20;;;14.90;99.90;;;;;;5032231;28;20029;-85
2021/07/29 03:33:31;;;;;;;0.17;0.17;;;14.80;99.90;;;;;;5030591;28;20057;-85
2021/07/29 03:35:57;;;;;;;1.20;0.60;;;14.70;99.90;;;;;;5031969;28;20021;-85
2021/07/29 03:38:22;;;;;;;0.17;0.17;;;14.70;99.90;;;;;;5030364;28;20064;-85
2021/07/29 03:40:48;;;;;;;0.30;0.30;;;14.60;99.90;;;;;;5031595;28;20026;-85
2021/07/29 03:43:14;;;;;;;0.33;0.33;;;14.70;99.90;;;;;;5031415;28;20451;-85
2021/07/29 03:45:40;;;;;;;0.10;0.10;;;14.50;99.90;;;;;;5031594;28;20025;-85
2021/07/29 03:48:07;;;;;;;2.10;0.90;;;14.50;99.90;;;;;;5031431;28;20037;-85
2021/07/29 03:50:33;;;;;;;0.40;0.40;;;14.50;99.90;;;;;;5031810;28;20026;-85
2021/07/29 03:52:59;;;;;;;0.10;0.10;;;14.50;99.90;;;;;;5031505;28;20030;-85
2021/07/29 03:55:26;;;;;;;0.90;0.87;;;14.30;99.90;;;;;;5030313;28;20769;-85
2021/07/29 03:57:51;;;;;;;2.30;0.28;;;14.20;99.90;;;;;;5031285;28;20279;-84
2021/07/29 04:00:17;;;;;;;0.20;0.20;;;14.20;99.90;;;;;;5031446;28;20033;-85
2021/07/29 04:02:43;;;;;;;0.23;0.23;;;14.20;99.90;;;;;;5031357;28;20025;-85
2021/07/29 04:05:10;;;;;;;0.10;0.10;;;14.20;99.90;;;;;;5031554;28;20030;-85
2021/07/29 04:07:37;;;;;;;0.43;0.30;;;14.20;99.90;;;;;;5031456;28;20059;-85
2021/07/29 04:10:04;;;;;;;1.80;0.52;;;14.20;99.90;;;;;;5031484;28;20860;-85
2021/07/29 04:12:33;;;;;;;1.02;0.73;;;14.20;99.90;;;;;;5031503;28;20049;-84
2021/07/29 04:14:59;;;;;;;0.10;0.10;;;14.30;99.90;;;;;;5029976;28;20448;-85
2021/07/29 04:17:25;;;;;;;0.43;0.40;;;14.30;99.90;;;;;;5030943;28;20030;-85
2021/07/29 04:19:50;;;;;;;0.23;0.23;;;14.30;99.90;;;;;;5031444;28;20076;-85
2021/07/29 04:22:17;;;;;;;0.10;0.10;;;14.20;99.90;;;;;;5031206;28;20033;-85
2021/07/29 04:24:43;;;;;;;0.22;0.22;;;14.30;99.90;;;;;;5030049;28;20030;-84
2021/07/29 04:27:09;;;;;;;0.20;0.20;;;14.20;99.90;;;;;;5029507;28;20047;-85
2021/07/29 04:29:35;;;;;;;0.67;0.43;;;14.20;99.90;;;;;;5031035;28;20101;-84
2021/07/29 04:32:02;;;;;;;0.63;0.63;;;14.20;99.90;;;;;;5031013;28;20029;-85
2021/07/29 04:34:28;;;;;;;0.40;0.40;;;14.10;99.90;;;;;;5030778;28;20045;-85
2021/07/29 04:36:55;;;;;;;0.10;0.10;;;14.20;99.90;;;;;;5030968;28;20204;-85
2021/07/29 04:39:21;;;;;;;0.17;0.17;;;14.10;99.90;;;;;;5030933;28;20083;-84
2021/07/29 04:41:47;;;;;;;0.43;0.43;;;14.10;99.90;;;;;;5030501;28;20041;-84
2021/07/29 04:44:14;;;;;;;0.50;0.50;;;14.20;99.90;;;;;;5030725;28;20631;-84
2021/07/29 04:46:42;;;;;;;0.13;0.13;;;14.20;99.90;;;;;;5030532;28;20779;-84
2021/07/29 04:49:09;;;;;;;0.20;0.20;;;14.10;99.90;;;;;;5028974;28;20064;-84
2021/07/29 04:51:36;;;;;;;0.10;0.10;;;14.20;99.90;;;;;;5030550;28;20645;-84
2021/07/29 04:54:02;;;;;;;;;;;14.10;99.90;;;;;;5031100;28;20026;-85
2021/07/29 04:56:28;;;;;;;0.22;0.22;;;14.20;99.90;;;;;;5030470;28;20319;-85
2021/07/29 04:58:54;;;;;;;0.20;0.20;;;14.30;99.90;;;;;;5030233;28;20029;-85
2021/07/29 05:01:20;;;;;;;0.30;0.30;;;14.30;99.90;;;;;;5030256;28;20034;-85
2021/07/29 05:03:46;;;;;;;0.10;0.10;;;14.40;99.90;;;;;;5030495;28;20041;-84
2021/07/29 05:06:12;;;;;;;0.28;0.28;;;14.40;99.90;;;;;;5030169;28;20034;-85
2021/07/29 05:08:38;;;;;;;0.30;0.30;;;14.40;99.90;;;;;;5029074;28;20436;-85
2021/07/29 05:11:05;;;;;;;0.30;0.30;;;14.40;99.90;;;;;;5030031;28;20026;-85
2021/07/29 05:13:31;;;;;;;0.47;0.45;;;14.40;99.90;;;;;;5029153;28;20048;-85
2021/07/29 05:15:58;;;;;;;0.30;0.30;;;14.50;99.90;;;;;;5031463;28;20033;-85
2021/07/29 05:18:24;;;;;;;2.22;0.85;;;14.60;99.90;;;;;;5049926;28;20095;-85
2021/07/29 05:20:50;;;;;;;0.30;0.30;;;14.70;99.90;;;;;;5050313;28;20435;-84
2021/07/29 05:23:16;;;;;;;0.10;0.10;;;14.80;99.90;;;;;;5049950;28;20032;-85
2021/07/29 05:25:42;;;;;;;0.27;0.20;;;15.00;99.90;;;;;;5048801;28;20143;-84
2021/07/29 05:28:08;;;;;;;0.20;0.20;;;15.60;99.90;;;;;;5049672;28;20499;-85
2021/07/29 05:30:37;;;;;;;0.53;0.53;;;15.10;99.90;;;;;;5048788;28;20033;-85
2021/07/29 05:33:04;;;;;;;1.08;1.05;;;14.80;99.90;;;;;;5050049;28;20590;-84
2021/07/29 05:35:31;;;;;;;0.32;0.32;;;14.70;99.90;;;;;;5032478;28;20068;-85
2021/07/29 05:37:58;;;;;;;0.30;0.22;;;14.70;99.90;;;;;;5030209;28;20045;-85
2021/07/29 05:40:23;;;;;;;0.30;0.30;;;14.70;99.90;;;;;;5029742;28;20497;-84
2021/07/29 05:42:49;;;;;;;0.20;0.20;;;14.60;99.90;;;;;;5030240;28;20047;-85
2021/07/29 05:45:15;;;;;;;0.30;0.30;;;14.80;99.90;;;;;;5029677;28;20033;-85
2021/07/29 05:47:42;;;;;;;0.40;0.40;;;15.00;99.90;;;;;;5030126;28;20124;-85
2021/07/29 05:50:08;;;;;;;0.10;0.10;;;15.10;99.90;;;;;;5030108;28;20021;-84
2021/07/29 05:52:34;;;;;;;0.30;0.30;;;15.40;99.90;;;;;;5029894;28;20076;-84
2021/07/29 05:54:59;;;;;;;0.57;0.57;;;16.50;99.90;;;;;;5030529;28;20429;-85
2021/07/29 05:57:25;;;;;;;0.10;0.10;;;17.50;99.90;;;;;;5029745;28;20045;-84
2021/07/29 05:59:51;;;;;;;0.30;0.30;;;18.90;99.90;;;;;;5030073;28;20444;-85
2021/07/29 06:02:17;;;;;;;2.90;0.33;;;19.70;99.90;;;;;;5028632;28;20440;-85
2021/07/29 06:04:42;;;;;;;0.83;0.73;;;17.70;99.90;;;;;;5030248;28;20037;-85
2021/07/29 06:07:08;;;;;;;0.07;0.07;;;17.10;99.90;;;;;;5030036;28;20029;-85
2021/07/29 06:09:34;;;;;;;0.20;0.20;;;17.30;99.90;;;;;;5029895;28;20321;-85
2021/07/29 06:12:00;;;;;;;0.40;0.33;;;19.30;99.90;;;;;;5030087;28;20026;-85
2021/07/29 06:14:25;;;;;;;0.30;0.30;;;20.40;99.90;;;;;;5029696;28;20032;-85
2021/07/29 06:16:51;;;;;;;0.00;0.00;;;18.70;99.90;;;;;;5030229;28;20091;-85
2021/07/29 06:19:19;;;;;;;1.50;0.30;;;17.20;99.90;;;;;;5032036;28;20527;-85
2021/07/29 06:21:46;;;;;;;0.38;0.30;;;16.70;99.90;;;;;;5033805;28;20401;-85
2021/07/29 06:24:12;;;;;;;0.30;0.30;;;16.90;99.90;;;;;;5033638;28;20021;-85
2021/07/29 06:26:38;;;;;;;0.15;0.15;;;19.00;99.90;;;;;;5033972;28;20483;-85
2021/07/29 06:29:05;;;;;;;;;;;21.80;99.90;;;;;;5034204;28;20029;-85
2021/07/29 06:31:31;;;;;;;;;;;22.80;99.90;;;;;;5034255;28;20388;-85
2021/07/29 06:33:59;;;;;;;0.10;0.10;;;22.90;99.90;;;;;;5033643;28;19916;-85
2021/07/29 06:36:25;;;;;;;0.25;0.10;;;23.60;99.90;;;;;;5032695;28;20116;-85
2021/07/29 06:38:51;;;;;;;0.35;0.20;;;24.30;99.90;;;;;;5034266;28;20101;-85
2021/07/29 06:41:16;;;;;;;0.20;0.17;;;24.00;99.90;;;;;;5034308;28;20033;-85
2021/07/29 06:43:42;;;;;;;0.17;0.17;;;25.80;99.90;;;;;;5033666;28;20396;-85
2021/07/29 06:46:09;;;;;;;1.55;0.10;;;24.80;99.90;;;;;;5033741;28;20033;-85
2021/07/29 06:48:35;;;;;;;;;;;25.20;98.60;;;;;;5034073;28;20020;-85
2021/07/29 06:51:05;;;;;;;0.05;0.05;;;25.00;99.50;;;;;;5034200;28;19975;-85
2021/07/29 06:53:37;;;;;;;0.03;0.03;;;25.40;97.90;;;;;;5033610;28;20382;-85
2021/07/29 06:56:04;;;;;;;0.10;0.10;;;25.10;98.30;;;;;;5032475;28;20049;-85
2021/07/29 06:58:30;;;;;;;0.10;0.10;;;24.30;98.80;;;;;;5032977;28;20037;-85
2021/07/29 07:00:59;;;;;;;0.05;0.05;;;25.10;97.20;;;;;;5033631;28;20029;-85
2021/07/29 07:03:26;;;;;;;0.08;0.03;;;25.80;96.60;;;;;;5033645;28;20033;-85
2021/07/29 07:05:52;;;;;;;0.38;0.30;;;27.30;93.50;;;;;;5033483;28;20141;-85
2021/07/29 07:08:17;;;;;;;0.32;0.13;;;28.10;88.40;;;;;;5033493;28;20125;-85
2021/07/29 07:10:44;;;;;;;0.15;0.15;;;29.80;89.20;;;;;;5033036;28;20087;-85
2021/07/29 07:13:09;;;;;;;0.73;0.32;;;28.50;81.20;;;;;;5033220;28;20037;-85
2021/07/29 07:15:35;;;;;;;0.55;0.10;;;28.80;82.80;;;;;;5033182;28;20032;-85
2021/07/29 07:18:01;;;;;;;0.00;0.00;;;30.20;76.60;;;;;;5032904;28;20025;-85
2021/07/29 07:20:27;;;;;;;0.08;0.08;;;32.30;73.30;;;;;;5031693;28;20814;-85
2021/07/29 07:22:53;;;;;;;0.25;0.25;;;32.50;68.40;;;;;;5033188;28;20033;-85
2021/07/29 07:25:19;;;;;;;;;;;33.70;63.10;;;;;;5033414;28;20034;-85
2021/07/29 07:27:45;;;;;;;0.25;0.25;;;33.90;57.50;;;;;;5031446;28;19905;-85
2021/07/29 07:30:11;;;;;;;;;;;35.30;55.20;;;;;;5033140;28;20100;-85
2021/07/29 07:32:37;;;;;;;0.50;0.35;;;33.10;50.70;;;;;;5033203;28;19996;-86
2021/07/29 07:35:03;;;;;;;;;;;34.80;48.70;;;;;;5051780;28;20094;-85
2021/07/29 07:37:29;;;;;;;0.00;0.00;;;35.20;44.20;;;;;;5051616;28;20669;-85
2021/07/29 07:39:55;;;;;;;;;;;33.30;45.40;;;;;;5053162;28;20116;-86
2021/07/29 07:42:21;;;;;;;0.10;0.10;;;33.40;41.50;;;;;;5052649;28;19911;-86
2021/07/29 07:44:46;;;;;;;;;;;34.20;50.40;;;;;;5052695;28;20024;-86
2021/07/29 07:47:12;;;;;;;0.00;0.00;;;36.30;42.00;;;;;;5052206;28;19908;-85
2021/07/29 07:49:39;;;;;;;;;;;36.90;34.90;;;;;;5051420;28;20087;-85
2021/07/29 07:52:08;;;;;;;0.10;0.10;;;35.80;31.20;;;;;;5052013;28;19908;-86
2021/07/29 07:54:36;;;;;;;0.43;0.40;;;38.80;31.90;;;;;;5052553;28;20100;-86
2021/07/29 07:57:04;;;;;;;0.00;0.00;;;38.80;31.00;;;;;;5052089;28;20048;-86
2021/07/29 07:59:29;;;;;;;0.50;0.50;;;38.70;30.90;;;;;;5050823;28;20021;-86
2021/07/29 08:01:55;;;;;;;0.00;0.00;;;39.00;26.10;;;;;;5052107;28;20036;-86
2021/07/29 08:04:21;;;;;;;0.00;0.00;;;39.00;24.00;;;;;;5052096;28;20063;-86
2021/07/29 08:06:46;;;;;;;0.10;0.10;;;39.60;24.40;;;;;;5051814;28;20029;-86
2021/07/29 08:09:12;;;;;;;0.13;0.13;;;39.00;22.10;;;;;;5051586;28;20024;-86
2021/07/29 08:11:38;;;;;;;1.38;0.10;;;38.90;19.90;;;;;;5051682;28;20029;-86
2021/07/29 08:14:04;;;;;;;0.43;0.20;;;39.80;18.70;;;;;;5051054;28;20025;-86
2021/07/29 08:16:29;;;;;;;0.20;0.20;;;40.60;13.60;;;;;;5051411;28;20486;-86
2021/07/29 08:18:56;;;;;;;0.00;0.00;;;39.30;14.80;;;;;;5051103;28;20489;-86
2021/07/29 08:21:22;;;;;;;0.30;0.30;;;39.80;13.60;;;;;;5051432;28;20182;-86
2021/07/29 08:23:48;;;;;;;0.38;0.38;;;39.30;10.60;;;;;;5051385;28;20536;-86
2021/07/29 08:26:14;;;;;;;0.10;0.10;;;39.50;14.00;;;;;;5049560;28;20044;-86
2021/07/29 08:28:40;;;;;;;0.00;0.00;;;38.20;14.50;;;;;;5050953;28;20021;-86
2021/07/29 08:31:10;;;;;;;0.10;0.10;;;38.80;12.40;;;;;;5050766;28;20029;-86
2021/07/29 08:33:36;;;;;;;0.05;0.05;;;39.40;9.00;;;;;;5052604;28;20429;-86
2021/07/29 08:36:03;;;;;;;0.13;0.10;;;40.80;8.50;;;;;;5070818;28;20103;-86
2021/07/29 08:38:28;;;;;;;0.45;0.38;;;41.40;5.50;;;;;;5069705;28;20487;-86
2021/07/29 08:40:55;;;;;;;0.45;0.15;;;41.00;2.90;;;;;;5070604;28;20024;-86
2021/07/29 08:43:22;;;;;;;0.30;0.13;;;39.90;6.60;;;;;;5069591;28;20033;-86
2021/07/29 08:45:51;;;;;;;0.17;0.17;;;40.40;7.20;;;;;;5071016;28;20029;-86
2021/07/29 08:48:27;;;;;;;0.00;0.00;;;40.10;2.90;;;;;;5070739;28;20024;-86
2021/07/29 08:50:56;;;;;;;0.10;0.08;;;41.20;1.00;;;;;;5070663;28;20469;-86
2021/07/29 08:53:22;;;;;;;0.10;0.10;;;40.80;1.00;;;;;;5069627;28;20070;-86
2021/07/29 08:55:53;;;;;;;0.08;0.05;;;41.00;1.00;;;;;;5069468;28;20041;-86
2021/07/29 08:58:19;;;;;;;0.00;0.00;;;43.00;1.00;;;;;;5069378;28;20021;-86
2021/07/29 09:01:08;;;;;;;0.00;0.00;;;42.60;1.00;;;;;;5058299;28;20032;-86
2021/07/29 09:03:34;;;;;;;0.00;0.00;;;41.70;1.00;;;;;;5031186;28;20053;-86
2021/07/29 09:06:08;;;;;;;0.00;0.00;;;43.00;1.00;;;;;;5029722;28;20033;-86
2021/07/29 09:08:54;;;;;;;0.20;0.10;;;43.10;1.00;;;;;;5029811;28;20440;-86
2021/07/29 09:11:38;;;;;;;0.00;0.00;;;42.00;1.00;;;;;;5031790;28;20029;-86
2021/07/29 09:14:07;;;;;;;1.95;0.35;;;36.90;3.30;;;;;;5030871;28;20013;-86
2021/07/29 09:16:37;;;;;;;0.00;0.00;;;32.20;14.40;;;;;;5031060;28;20493;-86
2021/07/29 09:19:04;;;;;;;0.00;0.00;;;30.90;19.20;;;;;;5030918;28;20859;-86
2021/07/29 09:21:31;;;;;;;0.20;0.20;;;29.00;24.80;;;;;;5031311;28;20031;-86
2021/07/29 09:24:07;;;;;;;0.10;0.10;;;28.00;28.30;;;;;;5030776;28;20045;-86
2021/07/29 09:26:56;;;;;;;0.10;0.10;;;28.00;29.50;;;;;;5030911;28;20037;-86
2021/07/29 09:29:23;;;;;;;0.15;0.15;;;35.50;16.60;;;;;;5029204;28;20017;-86
2021/07/29 09:32:02;;;;;;;0.40;0.10;;;36.20;12.30;;;;;;5031017;28;20017;-86
2021/07/29 09:34:44;;;;;;;1.75;0.38;;;39.20;9.30;;;;;;5037722;28;20519;-86
2021/07/29 09:37:10;;;;;;;0.65;0.32;;;41.00;1.00;;;;;;5050464;28;20025;-86
2021/07/29 09:39:36;;;;;;;0.80;0.75;;;41.70;1.00;;;;;;5050557;28;20024;-86
2021/07/29 09:42:22;;;;;;;;;;;41.90;1.00;;;;;;5049837;28;20029;-86
2021/07/29 09:44:56;;;;;;;0.38;0.10;;;42.90;1.00;;;;;;5050506;28;20364;-86
2021/07/29 09:47:23;;;;;;;1.10;0.17;;;42.80;1.00;;;;;;5050549;28;20032;-86
2021/07/29 09:49:50;;;;;;;0.60;0.35;;;41.00;1.00;;;;;;5049316;28;20051;-86
2021/07/29 09:52:17;;;;;;;0.20;0.20;;;39.60;1.00;;;;;;5050276;28;20437;-86
2021/07/29 09:54:48;;;;;;;0.10;0.10;;;38.50;1.00;;;;;;5053586;28;20047;-86
2021/07/29 09:57:14;;;;;;;0.10;0.10;;;38.90;1.00;;;;;;5054182;28;20508;-86
2021/07/29 09:59:40;;;;;;;0.13;0.10;;;37.50;1.00;;;;;;5054415;28;20029;-86
2021/07/29 10:02:06;;;;;;;;;;;40.10;1.00;;;;;;5053393;28;20040;-86
2021/07/29 10:04:49;;;;;;;0.82;0.30;;;42.60;1.00;;;;;;5054047;28;19958;-86
2021/07/29 10:07:35;;;;;;;0.00;0.00;;;42.80;1.00;;;;;;5053961;28;20788;-86
2021/07/29 10:10:03;;;;;;;0.00;0.00;;;39.10;1.00;;;;;;5054029;28;20056;-86
2021/07/29 10:12:31;;;;;;;0.05;0.05;;;40.00;1.00;;;;;;5053902;28;20017;-86
2021/07/29 10:14:59;;;;;;;0.28;0.20;;;34.90;3.50;;;;;;5054271;28;20492;-86
2021/07/29 10:17:34;;;;;;;0.10;0.10;;;31.90;12.10;;;;;;5052710;28;20516;-86
2021/07/29 10:20:12;;;;;;;0.00;0.00;;;30.30;16.80;;;;;;5052855;28;20040;-86
2021/07/29 10:22:39;;;;;;;0.03;0.03;;;30.90;18.30;;;;;;5053509;28;20095;-86
2021/07/29 10:25:05;;;;;;;0.10;0.10;;;37.30;3.40;;;;;;5053995;28;20052;-86
2021/07/29 10:27:31;;;;;;;0.25;0.15;;;40.50;1.00;;;;;;5053801;28;20028;-86
2021/07/29 10:30:19;;;;;;;0.55;0.38;;;35.70;1.00;;;;;;5053802;28;20082;-86
2021/07/29 10:32:49;;;;;;;0.20;0.20;;;32.60;8.20;;;;;;5053779;28;20549;-86
2021/07/29 10:35:30;;;;;;;0.32;0.25;;;30.70;15.20;;;;;;5053590;28;20083;-86
2021/07/29 10:38:00;;;;;;;0.35;0.35;;;29.60;17.70;;;;;;5053881;28;20546;-86
2021/07/29 10:40:39;;;;;;;0.00;0.00;;;29.90;17.10;;;;;;5051410;28;20124;-86
2021/07/29 10:43:25;;;;;;;0.13;0.13;;;33.30;14.50;;;;;;5052070;28;20029;-86
2021/07/29 10:45:51;;;;;;;;;;;38.80;1.00;;;;;;5053633;28;20033;-86
2021/07/29 10:48:39;;;;;;;0.13;0.13;;;41.20;1.00;;;;;;5053191;28;19959;-86
2021/07/29 10:51:12;;;;;;;0.08;0.08;;;40.90;1.00;;;;;;5053320;28;20037;-86
2021/07/29 10:53:43;;;;;;;0.10;0.10;;;39.20;1.00;;;;;;5053158;28;20477;-86
2021/07/29 10:56:19;;;;;;;0.00;0.00;;;40.90;1.00;;;;;;5053363;28;20049;-86
2021/07/29 10:58:47;;;;;;;0.35;0.15;;;39.00;1.00;;;;;;5051603;28;20029;-86
2021/07/29 11:01:14;;;;;;;0.00;0.00;;;39.80;1.00;;;;;;5053368;28;20606;-87
2021/07/29 11:03:47;;;;;;;0.10;0.10;;;39.90;1.00;;;;;;5051443;28;20033;-86
2021/07/29 11:06:24;;;;;;;0.20;0.13;;;33.10;5.00;;;;;;5053054;28;20506;-86
2021/07/29 11:08:51;;;;;;;0.10;0.10;;;31.40;11.90;;;;;;5052771;28;20487;-86
2021/07/29 11:11:17;;;;;;;0.13;0.13;;;30.10;12.90;;;;;;5051624;28;20091;-86
2021/07/29 11:13:50;;;;;;;0.85;0.13;;;29.50;14.90;;;;;;5053056;28;20753;-86
2021/07/29 11:16:16;;;;;;;0.08;0.08;;;29.00;18.90;;;;;;5051957;28;20033;-86
2021/07/29 11:18:58;;;;;;;0.43;0.17;;;30.10;17.60;;;;;;5052837;28;20033;-86
2021/07/29 11:21:24;;;;;;;0.08;0.00;;;30.10;17.20;;;;;;5053500;28;20052;-86
2021/07/29 11:23:50;;;;;;;0.32;0.08;;;30.00;18.60;;;;;;5052862;28;20531;-86
2021/07/29 11:26:16;;;;;;;0.03;0.03;;;30.20;27.40;;;;;;5051959;28;20036;-86
2021/07/29 11:28:42;;;;;;;0.00;0.00;;;30.00;19.90;;;;;;5053087;28;20087;-86
2021/07/29 11:31:08;;;;;;;0.10;0.10;;;29.10;22.30;;;;;;5051432;28;20454;-86
2021/07/29 11:33:34;;;;;;;0.20;0.10;;;29.30;21.00;;;;;;5051439;28;20104;-86
2021/07/29 11:36:08;;;;;;;0.00;0.00;;;29.00;22.40;;;;;;5033105;28;20152;-86
2021/07/29 11:38:34;;;;;;;0.17;0.10;;;29.00;23.60;;;;;;5031792;28;20814;-86
2021/07/29 11:41:01;;;;;;;0.20;0.20;;;29.20;21.90;;;;;;5032829;28;20112;-86
2021/07/29 11:43:30;;;;;;;0.00;0.00;;;29.50;21.30;;;;;;5032900;28;20036;-86
2021/07/29 11:46:10;;;;;;;0.10;0.10;;;29.40;20.70;;;;;;5032856;28;20033;-86
2021/07/29 11:48:36;;;;;;;0.70;0.43;;;28.50;22.70;;;;;;5032752;28;20029;-86
2021/07/29 11:51:15;;;;;;;0.28;0.17;;;28.40;23.00;;;;;;5032974;28;20108;-86
2021/07/29 11:53:43;;;;;;;0.03;0.03;;;27.90;24.30;;;;;;5032621;28;20048;-86
2021/07/29 11:56:11;;;;;;;0.10;0.10;;;27.70;25.90;;;;;;5032479;28;20494;-86
2021/07/29 11:58:39;;;;;;;0.70;0.60;;;27.40;26.30;;;;;;5032874;28;20029;-86
2021/07/29 12:01:11;;;;;;;0.20;0.20;;;27.30;27.30;;;;;;5032608;28;20029;-86
2021/07/29 12:03:41;;;;;;;0.77;0.25;;;27.40;27.20;;;;;;5032360;28;20030;-86
2021/07/29 12:06:08;;;;;;;0.00;0.00;;;27.20;26.00;;;;;;5032675;28;20087;-86
2021/07/29 12:08:35;;;;;;;1.23;0.38;;;28.30;25.50;;;;;;5032477;28;20116;-86
2021/07/29 12:11:01;;;;;;;0.10;0.10;;;28.00;24.70;;;;;;5032319;28;20029;-86
2021/07/29 12:13:29;;;;;;;0.40;0.40;;;27.50;26.20;;;;;;5032496;28;20108;-85
2021/07/29 12:15:57;;;;;;;0.20;0.20;;;28.10;27.00;;;;;;5031397;28;20021;-86
2021/07/29 12:18:23;;;;;;;0.10;0.10;;;28.70;25.20;;;;;;5032162;28;20105;-86
2021/07/29 12:20:51;;;;;;;0.10;0.10;;;28.80;24.20;;;;;;5032409;28;20108;-86
2021/07/29 12:23:18;;;;;;;0.68;0.13;;;28.60;25.80;;;;;;5031872;28;20033;-86
2021/07/29 12:25:45;;;;;;;0.10;0.10;;;28.20;25.40;;;;;;5030579;28;20034;-86
2021/07/29 12:28:12;;;;;;;0.43;0.38;;;28.60;36.10;;;;;;5030720;28;20432;-86
2021/07/29 12:30:42;;;;;;;0.30;0.25;;;28.30;25.40;;;;;;5030580;28;20044;-86
2021/07/29 12:33:18;;;;;;;1.02;0.38;;;28.30;26.70;;;;;;5031891;28;20117;-86
2021/07/29 12:35:57;;;;;;;;;;;28.80;25.50;;;;;;5032417;28;20481;-86
2021/07/29 12:38:33;;;;;;;0.30;0.30;;;28.60;25.90;;;;;;5032064;28;20282;-86
2021/07/29 12:41:00;;;;;;;0.50;0.43;;;28.50;26.10;;;;;;5031738;28;20026;-86
2021/07/29 12:43:28;;;;;;;0.30;0.30;;;28.20;27.60;;;;;;5032027;28;20029;-86
2021/07/29 12:45:56;;;;;;;0.13;0.13;;;28.60;26.30;;;;;;5031561;28;20049;-86
2021/07/29 12:48:27;;;;;;;0.10;0.10;;;28.80;26.30;;;;;;5031811;28;20032;-86
2021/07/29 12:50:54;;;;;;;0.35;0.25;;;29.40;24.10;;;;;;5030479;28;20408;-86
2021/07/29 12:53:21;;;;;;;0.70;0.32;;;29.90;22.80;;;;;;5031715;28;20029;-86
2021/07/29 12:55:50;;;;;;;0.10;0.10;;;30.40;21.10;;;;;;5031803;28;20120;-86
2021/07/29 12:58:17;;;;;;;0.38;0.10;;;30.00;21.20;;;;;;5030000;28;20079;-86